Time;durP1;ratioP1;P1;durP2;ratioP2;P2;SDS_P1;SDS_P2;PMS_P1;PMS_P2;Temp;Humidity;BMP_temperature;BMP_pressure;BME280_temperature;BME280_humidity;BME280_pressure;Samples;Min_cycle;Max_cycle;Signal;HPM_P1;HPM_P2
2021/06/03 00:00:57;;;;;;;3.65;2.45;;;;;;;17.94;65.45;101590.47;6259057;28;20049;-82
2021/06/03 00:03:59;;;;;;;5.13;2.83;;;;;;;17.90;65.00;101589.84;6258861;28;20124;-82
2021/06/03 00:07:00;;;;;;;5.68;3.38;;;;;;;17.78;65.48;101596.03;6256811;28;20049;-82
2021/06/03 00:10:05;;;;;;;10.60;3.05;;;;;;;17.73;66.43;101603.44;6258217;28;20068;-83
2021/06/03 00:13:06;;;;;;;3.80;2.88;;;;;;;17.68;67.29;101592.28;6258564;28;20107;-82
2021/06/03 00:16:10;;;;;;;5.57;3.33;;;;;;;17.67;67.43;101596.75;6258045;28;20099;-81
2021/06/03 00:19:12;;;;;;;5.78;3.13;;;;;;;17.65;67.51;101593.34;6258327;28;20053;-81
2021/06/03 00:22:13;;;;;;;4.25;2.95;;;;;;;17.62;66.52;101590.91;6258636;28;20049;-82
2021/06/03 00:25:15;;;;;;;5.75;3.10;;;;;;;17.62;67.39;101590.03;6258032;28;20424;-82
2021/06/03 00:28:16;;;;;;;4.88;3.25;;;;;;;17.55;67.62;101594.94;6258088;28;20049;-83
2021/06/03 00:31:18;;;;;;;7.75;3.80;;;;;;;17.55;67.49;101596.75;6257374;28;20056;-82
2021/06/03 00:34:18;;;;;;;7.18;3.40;;;;;;;17.54;67.41;101595.91;6257528;28;20057;-82
2021/06/03 00:37:19;;;;;;;6.13;3.33;;;;;;;17.54;67.85;101603.88;6256254;28;20081;-82
2021/06/03 00:40:22;;;;;;;11.23;3.30;;;;;;;17.52;67.74;101596.94;6257818;28;20044;-82
2021/06/03 00:43:23;;;;;;;6.15;3.30;;;;;;;17.45;68.06;101600.03;6257882;28;20062;-81
2021/06/03 00:46:24;;;;;;;5.22;3.47;;;;;;;17.41;68.50;101598.53;6257571;28;20080;-82
2021/06/03 00:49:25;;;;;;;7.47;3.78;;;;;;;17.34;68.62;101597.25;6258065;28;20115;-82
2021/06/03 00:52:26;;;;;;;5.55;3.42;;;;;;;17.28;69.52;101604.81;6256271;28;20045;-81
2021/06/03 00:55:29;;;;;;;5.65;3.10;;;;;;;17.22;69.11;101604.25;6253989;28;20049;-81
2021/06/03 00:58:30;;;;;;;7.55;3.47;;;;;;;17.16;69.56;101606.47;6254857;28;20049;-81
2021/06/03 01:01:31;;;;;;;4.82;3.55;;;;;;;17.19;69.95;101611.59;6255398;28;20607;-82
2021/06/03 01:04:33;;;;;;;6.30;3.50;;;;;;;17.14;69.94;101608.38;6255282;28;20054;-82
2021/06/03 01:07:34;;;;;;;6.07;3.85;;;;;;;17.10;70.16;101606.88;6254316;28;20412;-81
2021/06/03 01:10:41;;;;;;;8.98;3.33;;;;;;;17.08;70.10;101601.69;6253167;28;20057;-82
2021/06/03 01:13:51;;;;;;;5.78;3.60;;;;;;;17.05;70.84;101601.03;6252292;28;20571;-82
2021/06/03 01:16:55;;;;;;;4.35;3.55;;;;;;;16.99;71.19;101602.31;6252340;28;20096;-82
2021/06/03 01:19:56;;;;;;;6.20;2.97;;;;;;;17.01;70.43;101597.72;6253815;28;20041;-82
2021/06/03 01:23:04;;;;;;;6.40;4.32;;;;;;;16.90;71.40;101601.09;6254443;28;20042;-80
2021/06/03 01:26:07;;;;;;;5.85;3.78;;;;;;;16.87;71.07;101596.00;6253178;28;20045;-82
2021/06/03 01:29:08;;;;;;;6.10;3.65;;;;;;;16.83;71.93;101591.00;6254197;28;20049;-82
2021/06/03 01:32:10;;;;;;;6.15;4.15;;;;;;;16.77;72.57;101586.09;6254161;28;20045;-81
2021/06/03 01:35:16;;;;;;;8.05;4.72;;;;;;;16.71;73.78;101577.56;6255439;28;20138;-81
2021/06/03 01:38:21;;;;;;;6.75;4.35;;;;;;;16.68;73.29;101579.56;6255275;28;20053;-81
2021/06/03 01:41:24;;;;;;;6.38;4.18;;;;;;;16.65;73.85;101585.91;6255929;28;20504;-82
2021/06/03 01:44:25;;;;;;;6.47;3.90;;;;;;;16.61;74.13;101589.69;6256075;28;20056;-81
2021/06/03 01:47:27;;;;;;;5.57;3.92;;;;;;;16.59;73.88;101586.31;6255193;28;20053;-81
2021/06/03 01:50:28;;;;;;;6.60;4.03;;;;;;;16.57;74.04;101590.84;6256221;28;20048;-81
2021/06/03 01:53:30;;;;;;;6.97;4.63;;;;;;;16.49;74.39;101585.22;6254838;28;20052;-80
2021/06/03 01:56:36;;;;;;;7.68;3.97;;;;;;;16.43;74.54;101583.78;6255853;28;20053;-81
2021/06/03 01:59:37;;;;;;;6.22;4.03;;;;;;;16.37;75.88;101584.19;6256595;28;20049;-80
2021/06/03 02:02:38;;;;;;;6.72;3.95;;;;;;;16.33;75.77;101581.81;6258889;28;20045;-80
2021/06/03 02:05:39;;;;;;;9.93;4.38;;;;;;;16.29;76.68;101585.63;6257895;28;20063;-80
2021/06/03 02:08:40;;;;;;;7.28;4.45;;;;;;;16.24;77.03;101589.41;6260787;28;20045;-82
2021/06/03 02:11:46;;;;;;;7.32;4.25;;;;;;;16.22;77.44;101587.84;6263792;28;20042;-80
2021/06/03 02:14:52;;;;;;;6.32;4.05;;;;;;;16.12;77.83;101589.34;6265676;28;20184;-81
2021/06/03 02:17:56;;;;;;;5.20;3.97;;;;;;;16.11;77.41;101588.50;6264512;28;20057;-81
2021/06/03 02:20:58;;;;;;;7.43;4.68;;;;;;;16.00;77.88;101598.09;6265059;28;20171;-81
2021/06/03 02:24:01;;;;;;;9.85;4.45;;;;;;;16.01;78.25;101597.13;6265821;28;20057;-79
2021/06/03 02:27:05;;;;;;;9.23;4.25;;;;;;;15.92;78.47;101596.75;6265506;28;20053;-79
2021/06/03 02:30:09;;;;;;;8.15;4.35;;;;;;;15.84;78.93;101595.53;6266905;28;20049;-79
2021/06/03 02:33:09;;;;;;;6.95;4.28;;;;;;;15.80;78.86;101596.66;6267031;28;20045;-80
2021/06/03 02:36:10;;;;;;;6.47;4.28;;;;;;;15.77;78.50;101589.75;6267607;28;20528;-78
2021/06/03 02:39:12;;;;;;;6.55;4.60;;;;;;;15.75;79.15;101596.09;6266662;28;20053;-82
2021/06/03 02:42:15;;;;;;;12.57;4.85;;;;;;;15.72;79.97;101595.34;6269051;28;20417;-79
2021/06/03 02:45:19;;;;;;;10.82;4.88;;;;;;;15.72;79.79;101591.84;6268252;28;20511;-80
2021/06/03 02:48:20;;;;;;;9.52;4.35;;;;;;;15.67;79.91;101591.28;6270120;28;20050;-79
2021/06/03 02:51:21;;;;;;;8.63;5.25;;;;;;;15.65;80.02;101595.81;6269812;28;20057;-78
2021/06/03 02:54:22;;;;;;;9.25;4.32;;;;;;;15.67;79.87;101599.22;6271355;28;20054;-79
2021/06/03 02:57:24;;;;;;;8.30;5.65;;;;;;;15.61;80.27;101607.50;6271810;28;20045;-80
2021/06/03 03:00:27;;;;;;;7.13;4.75;;;;;;;15.58;81.04;101605.91;6271940;28;20049;-79
2021/06/03 03:03:28;;;;;;;11.80;5.55;;;;;;;15.55;81.11;101607.88;6272519;28;20045;-79
2021/06/03 03:06:28;;;;;;;8.23;5.13;;;;;;;15.55;81.23;101610.53;6265888;28;20191;-79
2021/06/03 03:09:29;;;;;;;8.07;5.38;;;;;;;15.47;81.54;101608.34;6257285;28;20089;-79
2021/06/03 03:12:31;;;;;;;8.05;5.13;;;;;;;15.46;81.76;101614.59;6256294;28;20122;-79
2021/06/03 03:15:33;;;;;;;6.40;4.50;;;;;;;15.47;81.44;101625.06;6257749;28;20434;-79
2021/06/03 03:18:35;;;;;;;7.85;5.25;;;;;;;15.44;81.36;101612.03;6257675;28;20061;-79
2021/06/03 03:21:36;;;;;;;8.95;5.53;;;;;;;15.38;81.62;101627.41;6257340;28;20050;-80
2021/06/03 03:24:36;;;;;;;9.23;5.45;;;;;;;15.33;82.29;101632.16;6257232;28;20034;-78
2021/06/03 03:27:40;;;;;;;11.65;6.03;;;;;;;15.36;82.94;101635.47;6255738;28;20045;-79
2021/06/03 03:30:42;;;;;;;10.75;5.68;;;;;;;15.32;82.66;101641.03;6255621;28;20054;-80
2021/06/03 03:33:43;;;;;;;10.05;6.30;;;;;;;15.26;82.98;101636.97;6255958;28;20041;-79
2021/06/03 03:36:45;;;;;;;11.07;6.45;;;;;;;15.29;83.20;101638.56;6255022;28;20049;-79
2021/06/03 03:39:45;;;;;;;10.05;5.95;;;;;;;15.33;83.12;101638.28;6252849;28;20061;-80
2021/06/03 03:42:48;;;;;;;7.43;5.40;;;;;;;15.28;82.71;101634.22;6252779;28;20109;-80
2021/06/03 03:45:49;;;;;;;7.55;5.38;;;;;;;15.33;83.23;101635.63;6251769;28;20049;-81
2021/06/03 03:48:50;;;;;;;37.28;6.75;;;;;;;15.32;83.95;101639.25;6252051;28;20077;-80
2021/06/03 03:51:51;;;;;;;11.55;6.00;;;;;;;15.37;83.72;101636.31;6252518;28;20096;-79
2021/06/03 03:54:52;;;;;;;11.13;6.18;;;;;;;15.36;84.08;101640.75;6250458;28;20120;-80
2021/06/03 03:57:54;;;;;;;12.23;5.82;;;;;;;15.37;84.27;101638.97;6281100;22;20046;-78
2021/06/03 04:00:55;;;;;;;18.42;6.40;;;;;;;15.40;84.03;101641.44;6335373;28;20079;-78
2021/06/03 04:03:56;;;;;;;12.40;6.43;;;;;;;15.39;84.09;101637.06;6349740;28;20413;-78
2021/06/03 04:06:58;;;;;;;11.82;6.13;;;;;;;15.41;83.90;101638.69;6353358;28;20509;-78
2021/06/03 04:09:59;;;;;;;8.70;5.63;;;;;;;15.44;84.09;101646.47;6352231;28;20112;-78
2021/06/03 04:13:01;;;;;;;9.98;5.90;;;;;;;15.51;83.67;101640.78;6352136;28;20047;-78
2021/06/03 04:16:03;;;;;;;8.70;5.82;;;;;;;15.48;84.28;101642.66;6352079;28;20418;-78
2021/06/03 04:19:04;;;;;;;9.40;5.68;;;;;;;15.50;84.48;101647.91;6351676;28;20047;-78
2021/06/03 04:22:05;;;;;;;10.50;6.38;;;;;;;15.50;84.68;101644.41;6351743;28;20047;-78
2021/06/03 04:25:07;;;;;;;9.25;5.57;;;;;;;15.48;84.85;101647.97;6352364;28;20048;-78
2021/06/03 04:28:09;;;;;;;24.13;6.70;;;;;;;15.59;84.20;101643.84;6353450;28;20063;-79
2021/06/03 04:31:10;;;;;;;8.55;5.25;;;;;;;15.62;83.84;101643.63;6329987;28;20051;-79
2021/06/03 04:34:11;;;;;;;10.02;5.90;;;;;;;15.62;83.77;101641.00;6328983;28;20136;-79
2021/06/03 04:37:12;;;;;;;16.50;6.30;;;;;;;15.63;83.26;101656.81;6330703;28;20054;-78
2021/06/03 04:40:15;;;;;;;19.85;5.82;;;;;;;15.62;83.32;101647.13;6328923;28;20048;-79
2021/06/03 04:43:17;;;;;;;10.27;5.15;;;;;;;15.64;83.47;101647.94;6340561;28;20070;-78
2021/06/03 04:46:18;;;;;;;11.45;5.75;;;;;;;15.70;83.16;101644.91;6345688;28;20475;-79
2021/06/03 04:49:19;;;;;;;11.10;5.30;;;;;;;15.72;82.70;101648.34;6349147;28;20070;-79
2021/06/03 04:52:27;;;;;;;11.13;5.57;;;;;;;15.71;82.89;101644.00;6353249;28;20098;-78
2021/06/03 04:55:28;;;;;;;12.07;5.50;;;;;;;15.71;83.50;101640.47;6341770;28;20422;-79
2021/06/03 04:58:30;;;;;;;9.15;5.22;;;;;;;15.81;83.06;101646.09;6340231;28;20044;-78
2021/06/03 05:01:31;;;;;;;6.55;5.13;;;;;;;15.84;83.01;101648.53;6346089;28;20047;-78
2021/06/03 05:04:32;;;;;;;14.45;6.45;;;;;;;15.88;83.51;101647.41;6349855;28;20043;-78
2021/06/03 05:07:33;;;;;;;13.50;5.18;;;;;;;15.95;82.88;101651.41;6343594;28;20064;-78
2021/06/03 05:10:35;;;;;;;11.90;6.05;;;;;;;15.96;83.65;101656.59;6333250;28;20510;-79
2021/06/03 05:13:37;;;;;;;13.52;5.63;;;;;;;15.98;84.02;101653.84;6329114;28;20055;-79
2021/06/03 05:16:38;;;;;;;13.90;5.07;;;;;;;16.02;84.20;101658.00;6330062;28;20044;-79
2021/06/03 05:19:39;;;;;;;12.00;5.53;;;;;;;16.10;83.81;101668.16;6328162;28;20058;-79
2021/06/03 05:22:40;;;;;;;11.32;5.55;;;;;;;16.15;83.75;101668.72;6328650;28;20044;-79
2021/06/03 05:25:42;;;;;;;13.88;7.97;;;;;;;16.19;83.93;101668.44;6338177;28;20078;-79
2021/06/03 05:28:44;;;;;;;14.55;6.50;;;;;;;16.26;83.81;101660.97;6336853;28;20040;-79
2021/06/03 05:31:46;;;;;;;8.55;5.65;;;;;;;16.35;84.14;101667.47;6354756;28;20059;-79
2021/06/03 05:34:47;;;;;;;12.07;5.55;;;;;;;16.45;83.22;101669.47;6355479;28;20048;-79
2021/06/03 05:37:48;;;;;;;14.65;5.53;;;;;;;16.59;82.54;101673.88;6357228;28;20074;-79
2021/06/03 05:40:49;;;;;;;8.80;5.57;;;;;;;16.68;82.32;101680.41;6363103;28;20043;-79
2021/06/03 05:43:51;;;;;;;9.68;5.35;;;;;;;16.75;82.68;101671.13;6365716;28;20044;-79
2021/06/03 05:46:52;;;;;;;10.82;5.53;;;;;;;16.77;82.34;101687.81;6360337;28;20044;-79
2021/06/03 05:49:53;;;;;;;9.43;5.43;;;;;;;16.79;82.82;101696.53;6368916;28;20059;-78
2021/06/03 05:52:54;;;;;;;11.60;5.88;;;;;;;16.80;83.50;101690.25;6371584;28;20043;-79
2021/06/03 05:55:55;;;;;;;16.90;6.20;;;;;;;16.79;83.56;101696.53;6369481;28;20078;-79
2021/06/03 05:58:57;;;;;;;8.32;6.00;;;;;;;16.82;83.10;101691.03;6366443;28;20054;-79
2021/06/03 06:02:01;;;;;;;17.85;5.38;;;;;;;16.87;83.74;101688.06;6366401;28;20043;-78
2021/06/03 06:08:21;;;;;;;14.65;5.25;;;;;;;16.96;83.81;101690.97;6359152;28;20048;-79
2021/06/03 06:11:23;;;;;;;32.28;7.65;;;;;;;17.08;83.54;101701.72;6360426;28;20055;-79
2021/06/03 06:14:25;;;;;;;47.63;8.25;;;;;;;17.15;83.46;101709.22;6370672;28;20057;-79
2021/06/03 06:17:26;;;;;;;15.25;5.72;;;;;;;17.20;83.59;101704.44;6346333;28;20545;-78
2021/06/03 06:20:28;;;;;;;13.27;5.40;;;;;;;17.30;82.55;101706.50;6355373;28;20048;-79
2021/06/03 06:23:28;;;;;;;8.13;5.13;;;;;;;17.38;82.74;101706.84;6367638;28;20043;-78
2021/06/03 06:26:30;;;;;;;16.80;4.93;;;;;;;17.45;82.29;101709.00;6368326;28;20054;-78
2021/06/03 06:29:32;;;;;;;11.75;4.68;;;;;;;17.54;81.92;101704.88;6359473;28;20039;-79
2021/06/03 06:32:33;;;;;;;10.60;5.30;;;;;;;17.65;81.59;101701.47;6369036;28;20043;-78
2021/06/03 06:35:34;;;;;;;6.25;4.55;;;;;;;17.74;82.03;101708.88;6369012;28;20516;-78
2021/06/03 06:38:37;;;;;;;6.47;4.43;;;;;;;17.84;80.70;101703.75;6368503;28;20116;-78
2021/06/03 06:41:41;;;;;;;7.68;4.40;;;;;;;17.87;80.87;101703.56;6369099;28;20070;-79
2021/06/03 06:44:43;;;;;;;7.15;4.45;;;;;;;17.83;81.73;101702.91;6369943;28;20039;-78
2021/06/03 06:47:44;;;;;;;9.07;4.72;;;;;;;17.84;82.26;101699.28;6355174;28;20048;-79
2021/06/03 06:50:47;;;;;;;11.70;4.75;;;;;;;17.89;82.61;101709.63;6364885;28;20051;-78
2021/06/03 06:53:48;;;;;;;9.55;4.80;;;;;;;17.92;82.55;101710.25;6358025;28;20059;-79
2021/06/03 06:56:49;;;;;;;13.48;4.63;;;;;;;17.95;82.40;101711.88;6368656;28;20051;-79
2021/06/03 06:59:51;;;;;;;21.13;5.32;;;;;;;18.08;81.87;101711.88;6351388;28;20048;-78
2021/06/03 07:02:52;;;;;;;14.32;4.80;;;;;;;18.21;81.38;101710.03;6369776;28;20040;-79
2021/06/03 07:05:53;;;;;;;8.15;4.60;;;;;;;18.31;80.14;101716.44;6369404;28;20044;-79
2021/06/03 07:08:54;;;;;;;15.23;4.35;;;;;;;18.43;79.25;101712.88;6370874;28;20044;-79
2021/06/03 07:11:55;;;;;;;10.85;4.22;;;;;;;18.71;76.81;101721.59;6373179;28;20076;-79
2021/06/03 07:14:57;;;;;;;15.43;4.35;;;;;;;18.85;76.43;101728.59;6374309;28;20115;-78
2021/06/03 07:17:58;;;;;;;10.20;3.75;;;;;;;19.08;74.47;101730.44;6373843;28;20073;-79
2021/06/03 07:20:59;;;;;;;31.15;5.32;;;;;;;19.17;74.21;101723.59;6373438;28;20553;-79
2021/06/03 07:24:00;;;;;;;9.82;4.00;;;;;;;19.31;71.17;101723.41;6369144;28;20040;-79
2021/06/03 07:27:01;;;;;;;7.18;3.50;;;;;;;19.42;73.18;101728.78;6370238;28;20043;-80
2021/06/03 07:30:06;;;;;;;15.32;4.28;;;;;;;19.45;72.13;101728.56;6370043;28;20055;-76
2021/06/03 07:33:08;;;;;;;13.48;4.00;;;;;;;19.57;71.11;101721.44;6359465;28;20052;-77
2021/06/03 07:36:09;;;;;;;11.02;3.60;;;;;;;19.63;71.21;101723.69;6366670;28;20463;-77
2021/06/03 07:39:10;;;;;;;7.95;3.75;;;;;;;19.74;70.07;101723.69;6365140;28;20516;-78
2021/06/03 07:42:12;;;;;;;5.70;3.58;;;;;;;19.81;72.16;101721.44;6356309;28;20043;-77
2021/06/03 07:45:16;;;;;;;8.40;3.42;;;;;;;19.85;71.54;101722.03;6346252;28;20047;-77
2021/06/03 07:48:17;;;;;;;10.35;3.30;;;;;;;19.87;72.79;101731.63;6337275;28;20051;-77
2021/06/03 07:51:18;;;;;;;8.02;3.80;;;;;;;19.83;72.64;101735.50;6355929;28;20051;-78
2021/06/03 07:54:19;;;;;;;11.27;3.83;;;;;;;19.84;73.13;101734.50;6329321;28;20059;-76
2021/06/03 07:57:20;;;;;;;13.93;4.15;;;;;;;19.89;74.09;101745.69;6341417;28;20068;-76
2021/06/03 08:00:24;;;;;;;10.10;3.90;;;;;;;19.92;73.98;101736.59;6331860;28;20398;-77
2021/06/03 08:03:26;;;;;;;11.10;3.05;;;;;;;19.95;74.33;101734.56;6350449;28;20592;-77
2021/06/03 08:06:27;;;;;;;6.25;3.60;;;;;;;20.01;75.71;101741.22;6328035;28;20391;-77
2021/06/03 08:09:27;;;;;;;10.70;3.40;;;;;;;20.01;73.83;101736.75;6333478;28;20048;-77
2021/06/03 08:12:29;;;;;;;15.90;3.83;;;;;;;20.08;73.67;101738.94;6329332;28;20040;-77
2021/06/03 08:15:32;;;;;;;7.07;3.47;;;;;;;20.16;70.12;101742.69;6352350;28;20059;-77
2021/06/03 08:18:33;;;;;;;12.25;3.45;;;;;;;20.23;71.87;101741.25;6350628;28;20055;-77
2021/06/03 08:21:35;;;;;;;10.00;3.45;;;;;;;20.27;70.31;101739.22;6359646;28;20051;-77
2021/06/03 08:24:35;;;;;;;8.52;3.85;;;;;;;20.36;70.17;101742.97;6353216;28;20051;-76
2021/06/03 08:27:36;;;;;;;8.35;3.70;;;;;;;20.47;69.64;101746.50;6348208;28;20075;-75
2021/06/03 08:30:39;;;;;;;4.40;3.08;;;;;;;20.56;67.04;101741.41;6336296;28;20415;-77
2021/06/03 08:33:40;;;;;;;11.60;2.95;;;;;;;20.60;69.59;101743.72;6330816;28;20048;-75
2021/06/03 08:36:41;;;;;;;9.02;3.40;;;;;;;20.64;65.53;101741.66;6331603;28;20126;-77
2021/06/03 08:39:41;;;;;;;7.55;3.13;;;;;;;20.63;68.75;101747.97;6337741;28;20111;-77
2021/06/03 08:42:43;;;;;;;6.70;3.10;;;;;;;20.66;68.50;101750.38;6337788;28;20044;-78
2021/06/03 08:45:46;;;;;;;10.63;3.17;;;;;;;20.68;69.50;101749.31;6331281;28;20040;-77
2021/06/03 08:48:47;;;;;;;6.57;3.13;;;;;;;20.71;70.07;101745.53;6336878;28;20101;-77
2021/06/03 08:51:51;;;;;;;9.00;3.28;;;;;;;20.75;72.23;101746.97;6337156;28;20511;-77
2021/06/03 08:54:54;;;;;;;9.65;3.70;;;;;;;20.76;69.53;101744.19;6337138;28;20052;-77
2021/06/03 08:57:55;;;;;;;6.65;2.95;;;;;;;20.73;67.67;101741.78;6334973;28;20727;-77
2021/06/03 09:00:59;;;;;;;7.88;3.08;;;;;;;20.80;69.18;101744.78;6333960;28;20048;-76
2021/06/03 09:04:00;;;;;;;5.30;2.65;;;;;;;20.85;69.33;101747.09;6335824;28;20157;-77
2021/06/03 09:07:01;;;;;;;5.50;2.80;;;;;;;20.78;69.58;101747.59;6353014;27;20068;-76
2021/06/03 09:10:32;;;;;;;11.00;3.00;;;;;;;20.78;69.41;101746.75;6350391;28;20044;-77
2021/06/03 09:13:36;;;;;;;7.40;3.00;;;;;;;20.81;69.11;101746.50;6353658;28;20064;-77
2021/06/03 09:16:38;;;;;;;6.35;2.95;;;;;;;20.71;67.84;101737.50;6354794;28;20414;-77
2021/06/03 09:19:51;;;;;;;7.63;3.10;;;;;;;20.61;69.98;101749.91;6337526;28;20090;-74
2021/06/03 09:22:53;;;;;;;11.32;3.30;;;;;;;20.74;70.52;101747.97;6363199;28;20055;-78
2021/06/03 09:25:55;;;;;;;4.82;2.75;;;;;;;20.59;68.68;101742.03;6337528;28;20252;-78
2021/06/03 09:28:58;;;;;;;13.32;3.75;;;;;;;20.51;70.74;101750.63;6326624;28;20052;-77
2021/06/03 09:32:06;;;;;;;8.98;3.13;;;;;;;20.44;70.49;101751.25;6337525;28;20052;-78
2021/06/03 09:35:07;;;;;;;9.98;3.47;;;;;;;20.42;72.46;101751.34;6347619;28;20082;-77
2021/06/03 09:38:08;;;;;;;11.52;3.28;;;;;;;20.46;71.41;101752.78;6355389;28;20437;-75
2021/06/03 09:41:09;;;;;;;12.38;4.35;;;;;;;20.52;72.58;101747.00;6365601;28;20051;-76
2021/06/03 09:44:16;;;;;;;12.00;3.58;;;;;;;20.64;73.63;101752.34;6365203;28;20058;-75
2021/06/03 09:47:20;;;;;;;6.82;3.90;;;;;;;20.71;73.48;101745.53;6363043;28;20047;-76
2021/06/03 09:50:24;;;;;;;20.08;4.07;;;;;;;20.83;72.45;101747.22;6354432;28;20051;-78
2021/06/03 09:53:52;;;;;;;38.05;5.00;;;;;;;20.98;70.48;101747.78;6358739;28;20483;-78
2021/06/03 09:56:56;;;;;;;17.40;4.10;;;;;;;21.17;69.68;101750.69;6363189;28;20067;-77
2021/06/03 09:59:59;;;;;;;9.05;3.30;;;;;;;21.24;70.58;101748.34;6365881;22;20055;-73
2021/06/03 10:03:02;;;;;;;8.27;3.40;;;;;;;21.35;70.39;101739.44;6310081;28;20051;-75
2021/06/03 10:06:03;;;;;;;46.60;4.60;;;;;;;21.44;71.04;101736.88;6298745;28;20060;-74
2021/06/03 10:09:04;;;;;;;49.33;5.47;;;;;;;21.53;70.91;101736.09;6311958;28;20048;-74
2021/06/03 10:12:07;;;;;;;40.72;4.60;;;;;;;21.59;69.97;101740.09;6320487;28;20055;-74
2021/06/03 10:15:15;;;;;;;18.35;3.80;;;;;;;21.70;68.08;101748.03;6320855;28;20044;-74
2021/06/03 10:18:18;;;;;;;12.07;3.17;;;;;;;21.78;69.37;101747.41;6320349;28;20057;-74
2021/06/03 10:21:19;;;;;;;13.07;3.63;;;;;;;21.85;69.06;101745.91;6320701;28;20059;-74
2021/06/03 10:25:01;;;;;;;11.90;3.53;;;;;;;21.94;68.53;101739.78;6317638;28;20044;-74
2021/06/03 10:28:05;;;;;;;15.52;3.05;;;;;;;22.07;66.84;101749.41;6295240;28;20122;-75
2021/06/03 10:31:11;;;;;;;9.85;2.85;;;;;;;22.19;67.05;101751.06;6299258;28;20590;-75
2021/06/03 10:34:13;;;;;;;17.98;3.00;;;;;;;22.23;65.32;101745.31;6299804;28;20051;-75
2021/06/03 10:37:15;;;;;;;10.02;2.95;;;;;;;22.33;65.45;101744.50;6304405;28;20056;-74
2021/06/03 10:40:20;;;;;;;10.02;2.92;;;;;;;22.42;65.35;101752.59;6311996;28;20044;-75
2021/06/03 10:43:21;;;;;;;15.40;8.52;;;;;;;22.63;62.30;101749.88;6309600;28;20047;-73
2021/06/03 10:46:22;;;;;;;17.27;4.05;;;;;;;22.66;61.09;101752.25;6304540;28;20055;-73
2021/06/03 10:49:27;;;;;;;12.20;3.00;;;;;;;22.76;59.40;101752.31;6299002;28;20045;-74
2021/06/03 10:52:28;;;;;;;6.45;2.20;;;;;;;22.69;58.17;101754.66;6299348;28;20040;-74
2021/06/03 10:55:32;;;;;;;8.45;2.85;;;;;;;22.73;60.15;101764.13;6299323;28;20056;-74
2021/06/03 10:58:35;;;;;;;8.30;3.08;;;;;;;22.75;62.97;101764.00;6299043;28;20044;-75
2021/06/03 11:01:50;;;;;;;18.67;3.25;;;;;;;22.71;63.80;101759.88;6298762;28;20061;-74
2021/06/03 11:04:51;;;;;;;9.35;3.05;;;;;;;22.78;64.21;101756.53;6311237;28;20048;-78
2021/06/03 11:07:52;;;;;;;12.45;3.10;;;;;;;22.83;64.04;101753.44;6324103;28;20117;-74
2021/06/03 11:10:55;;;;;;;21.58;3.83;;;;;;;22.89;63.97;101757.41;6323808;28;20048;-74
2021/06/03 11:14:06;;;;;;;12.95;3.55;;;;;;;22.98;65.35;101751.25;6324161;28;20514;-74
2021/06/03 11:17:06;;;;;;;9.77;3.47;;;;;;;23.06;65.76;101753.25;6320156;28;20049;-74
2021/06/03 11:20:10;;;;;;;7.05;3.00;;;;;;;23.23;66.53;101747.19;6310948;28;20087;-74
2021/06/03 11:23:47;;;;;;;5.43;2.63;;;;;;;23.28;65.80;101748.47;6323713;28;20059;-74
2021/06/03 11:26:56;;;;;;;20.48;3.30;;;;;;;23.55;63.40;101750.47;6280229;28;20051;-74
2021/06/03 11:30:00;;;;;;;11.07;3.55;;;;;;;23.75;62.41;101742.41;6323587;28;20048;-74
2021/06/03 11:33:00;;;;;;;12.07;3.63;;;;;;;23.99;58.65;101744.66;6323609;28;20136;-74
2021/06/03 11:36:27;;;;;;;4.95;2.88;;;;;;;24.24;58.05;101743.16;6323705;28;20162;-74
2021/06/03 11:39:38;;;;;;;4.40;2.97;;;;;;;24.51;58.40;101745.06;6323127;28;20048;-74
2021/06/03 11:42:43;;;;;;;9.50;3.55;;;;;;;24.65;57.29;101736.50;6323079;28;20052;-75
2021/06/03 11:45:45;;;;;;;7.28;2.80;;;;;;;24.88;55.44;101728.88;6323245;28;20055;-75
2021/06/03 11:48:46;;;;;;;7.00;3.13;;;;;;;25.16;54.10;101729.69;6323011;28;20187;-75
2021/06/03 11:52:12;;;;;;;6.10;2.78;;;;;;;25.30;54.87;101723.78;6323008;28;20044;-75
2021/06/03 11:55:13;;;;;;;10.48;3.13;;;;;;;25.60;55.66;101716.28;6323349;28;20483;-75
2021/06/03 11:58:24;;;;;;;7.07;2.80;;;;;;;25.64;51.38;101714.97;6322937;28;20055;-75
2021/06/03 12:01:33;;;;;;;12.13;3.42;;;;;;;25.97;50.89;101712.53;6322780;28;20059;-75
2021/06/03 12:04:34;;;;;;;4.22;2.60;;;;;;;26.21;51.73;101714.56;6313059;28;20046;-75
2021/06/03 12:07:42;;;;;;;6.65;2.30;;;;;;;26.61;50.06;101711.19;6297321;28;20423;-75
2021/06/03 12:10:53;;;;;;;5.72;2.50;;;;;;;26.80;48.45;101707.41;6297509;28;20462;-75
2021/06/03 12:14:04;;;;;;;11.13;2.70;;;;;;;27.26;48.03;101702.44;6297331;28;20414;-75
2021/06/03 12:17:06;;;;;;;6.28;2.25;;;;;;;27.63;48.06;101704.63;6297509;28;20059;-75
2021/06/03 12:20:10;;;;;;;8.25;2.60;;;;;;;27.98;47.41;101700.72;6310518;28;20476;-74
2021/06/03 12:23:13;;;;;;;9.65;2.80;;;;;;;28.26;48.03;101690.31;6322304;28;20048;-75
2021/06/03 12:26:15;;;;;;;24.95;3.60;;;;;;;28.59;44.54;101692.06;6322438;28;20048;-74
2021/06/03 12:29:25;;;;;;;6.13;2.42;;;;;;;28.78;45.74;101686.19;6321902;28;20048;-74
2021/06/03 12:32:26;;;;;;;9.80;2.60;;;;;;;28.87;43.71;101692.41;6322148;28;20052;-72
2021/06/03 12:35:32;;;;;;;7.80;2.28;;;;;;;29.04;43.27;101692.16;6322220;28;20044;-73
2021/06/03 12:38:35;;;;;;;7.82;2.72;;;;;;;29.24;43.94;101683.53;6321994;28;20051;-74
2021/06/03 12:41:37;;;;;;;6.00;2.08;;;;;;;29.66;42.75;101674.03;6321905;28;20465;-74
2021/06/03 12:44:39;;;;;;;6.25;2.60;;;;;;;29.59;42.62;101673.94;6321749;28;20040;-73
2021/06/03 12:47:40;;;;;;;40.10;4.05;;;;;;;29.40;41.19;101675.28;6321806;28;20047;-73
2021/06/03 12:50:43;;;;;;;7.70;2.90;;;;;;;29.47;41.36;101675.38;6321565;28;20050;-72
2021/06/03 12:53:48;;;;;;;8.52;2.35;;;;;;;29.42;41.02;101661.53;6321456;28;20487;-73
2021/06/03 12:56:50;;;;;;;7.22;2.55;;;;;;;29.35;40.86;101666.03;6321363;28;20097;-74
2021/06/03 12:59:55;;;;;;;6.53;2.70;;;;;;;29.53;44.21;101653.81;6321219;28;20045;-74
2021/06/03 13:02:56;;;;;;;7.97;2.88;;;;;;;29.73;41.78;101645.19;6321424;28;20048;-76
2021/06/03 13:06:03;;;;;;;7.68;2.85;;;;;;;29.62;42.04;101642.94;6300285;28;20090;-73
2021/06/03 13:09:04;;;;;;;5.00;2.42;;;;;;;29.57;41.96;101638.09;6295969;28;20499;-73
2021/06/03 13:12:07;;;;;;;7.70;2.72;;;;;;;29.55;42.78;101646.38;6296307;28;20048;-73
2021/06/03 13:15:09;;;;;;;11.15;2.30;;;;;;;29.66;39.73;101627.97;6295888;28;20125;-75
2021/06/03 13:18:11;;;;;;;11.48;2.60;;;;;;;29.60;38.68;101618.72;6296121;28;20049;-75
2021/06/03 13:21:13;;;;;;;4.95;2.53;;;;;;;30.22;41.05;101622.94;6318305;28;20522;-75
2021/06/03 13:24:20;;;;;;;4.80;2.20;;;;;;;29.58;41.12;101611.81;6320876;28;20040;-75
2021/06/03 13:27:23;;;;;;;8.93;2.78;;;;;;;28.80;41.55;101616.53;6320695;28;20040;-75
2021/06/03 13:30:28;;;;;;;6.03;2.35;;;;;;;28.17;43.48;101620.25;6320978;28;20055;-74
2021/06/03 13:33:31;;;;;;;6.65;1.98;;;;;;;27.86;44.09;101620.19;6321128;28;20625;-74
2021/06/03 13:36:32;;;;;;;2.60;1.88;;;;;;;27.80;44.93;101614.47;6316907;28;20047;-73
2021/06/03 13:39:35;;;;;;;9.10;1.90;;;;;;;28.03;42.22;101616.41;6302936;28;20135;-74
2021/06/03 13:42:39;;;;;;;7.53;2.65;;;;;;;28.59;44.45;101624.44;6320852;28;20105;-73
2021/06/03 13:45:43;;;;;;;4.65;2.17;;;;;;;28.52;43.13;101619.75;6303793;28;20072;-73
2021/06/03 13:48:46;;;;;;;7.63;2.20;;;;;;;28.09;46.12;101623.81;6295735;28;20048;-72
2021/06/03 13:51:57;;;;;;;5.95;2.00;;;;;;;27.88;44.46;101629.78;6296001;28;20044;-72
2021/06/03 13:55:12;;;;;;;1.95;1.70;;;;;;;27.46;42.89;101638.13;6319561;28;20077;-73
2021/06/03 13:58:28;;;;;;;51.05;3.55;;;;;;;27.33;42.22;101686.41;6320526;28;20052;-75
2021/06/03 14:01:32;;;;;;;4.60;1.33;;;;;;;26.57;42.77;101707.13;6320497;28;20392;-74
2021/06/03 14:04:39;;;;;;;11.57;1.70;;;;;;;25.69;45.09;101723.44;6322732;28;20461;-74
2021/06/03 14:07:40;;;;;;;8.52;1.60;;;;;;;25.11;47.65;101747.28;6325375;28;20048;-75
2021/06/03 14:11:12;;;;;;;45.35;3.28;;;;;;;24.54;49.72;101759.06;6325399;28;20055;-77